Versailles, IN

5:02 AM EDT on October 01, 2016 (GMT -0400)
APRSWXNET | | Change Station

Elev 954 ft 39.07 °N, 85.25 °W | Updated 24 minutes ago

Overcast
Overcast
54 °F
Feels Like 54 °F
N
0
Wind Variable Wind from SSE
Gusts 2.0 mph

Today
High -- | Low -- °F
--% Chance of Precip.
Yesterday
High -- | Low -- °F
Precip. -- in
Pressure 30.02 in
Visibility 8.0 miles
Clouds Mostly Cloudy 900 ft
Overcast 1800 ft
Dew Point 53 °F
Humidity 96%
Rainfall in
Snow Depth Not available.
7:37 AM 7:22 PM
New Moon, 0% visible
SPECI KCVG 010859Z 18003KT 8SM BKN009 OVC018 13/13 A3002 RMK AO2
Pressure 30.02 in
Visibility 8.0 miles
Clouds Mostly Cloudy 900 ft
Overcast 1800 ft
Dew Point 53 °F
Humidity 96%
Rainfall in
Snow Depth Not available.
7:37 AM 7:22 PM
New Moon, 0% visible
SPECI KCVG 010859Z 18003KT 8SM BKN009 OVC018 13/13 A3002 RMK AO2

10-Day Weather Forecast

Almanac

Astronomy

Oct. 01, 2016 Rise Set
Actual Time
Civil Twilight
Nautical Twilight
Astronomical Twilight
Moon
Length of Visible Light
Length of Day
Tomorrow will be .
, % of the Moon is Illuminated

Today's Extremes

State Highs State Lows

Community

WunderPhotos

Upload Photos

1,942,898 photos uploaded!

WunderBlog® & News

Nearby

Air Quality

  Air Quality AQ Index Pollutant
Not available.

Snow Depth

Station Depth Elevation

Earthquake Activity

City Distance Mag. Time & Date
Minimum magnitude displayed is 2.5.

Coastal Water Temperatures

Place Temperature

Stations

Nearby Weather Stations

Station Location Temp. Windchill Dew Point Humidity Wind Precip. Elev Updated Type
                   

Watches & Warnings

There are currently no watches in effect.